Copperas Cove, Texas
Current Conditions -  °F | °C
As of 4:56 PM on Wednesday 26 Nov 2014 (Local Time) from KHLR Reporting Station
Clear Clear  
Wind Chill: 69°   Ceiling: Unl
Heat Index: 69°   Visibility: 10mi
Dew Point: 29°   Wind: 5mph
Humidity: 22%   Direction: 320°NW
Pressure: 30.21"   Gusts: NA
Location:  31.12°N, 97.9°W
Report Text: KHLR 262256Z AUTO 32004KT 10SM CLR 21/M02 A3021 RMK AO2 SLP261 T02061017 $
Loading
Personal Weather Stations






























Interactive Weather Map New forecast layout! Learn more

10-Day Weather Forecast

Advertisements
Track Severe Weather on mobile